Terminal Aerodrome Forecast
Issued by NWS Cleveland, OH

Home | Current Version | Previous Version | Graphics & Text | Print | Product List | Glossary On
Versions: 1 2 3 4 5 6 7 8 9 10 11 12 13 14 15 16 17 18 19 20 21 22 23 24 25
000
FTUS41 KCLE 270203 AAA
TAFYNG
TAF AMD
KYNG 270203Z 2702/2724 16010KT P6SM SCT050 BKN100
      TEMPO 2702/2706 4SM -SHRA BKN009
     FM270700 16008KT 4SM BR OVC008
     FM271400 23006KT P6SM OVC015
     FM272100 24006KT P6SM BKN050=

USA.gov is the U.S. government's official web portal to all federal, state and local government web resources and services.